Prochaines Courses

Connexion

Trail de Licques 2013 12 Km

12 Km Trail Licques du 05/05/13 (Réelle 11,6)

Rang Dossard Nom Prénom Temps Cat Rang Cat Ecart Ecart Cat Club Vitesse Km/h Temps au Km
1 361 HENQUEZ THIERRY 00:44:28 V1M 1 00:00:00 00:00:00 AC AUDOMAROIS 15,652 03:50
2 349 CARBONNIER MICHEL 00:47:03 V1M 2 00:02:35 00:02:35 PATRIOTE CROSS DE GUINES 14,793 04:03
3 378 DELOHEN STEPHANE 00:48:08 V2M 1 00:03:40 00:00:00 R.C. BLENDECQUES 14,460 04:09
4 355 SERGENT ROMUALD 00:48:47 SEM 1 00:04:19 00:00:00 TEAM TRAIL 62 14,267 04:12
5 329 SAILLY NICOLAS 00:49:22 SEM 2 00:04:54 00:00:35 ASU DUNKERQUE 14,099 04:15
6 344 JOIRE TANGUY 00:49:44 SEM 3 00:05:16 00:00:57 PATRIOTE CROSS DE GUINES 13,995 04:17
7 284 PAGERIE SEBASTIEN 00:51:16 V1M 3 00:06:48 00:06:48 FREVENT OLYMPIC CLUB 13,576 04:25
8 374 COEUGNET MANUEL 00:51:25 SEM 4 00:06:57 00:02:38 SPORT EVASION DES 2 CAPS 13,536 04:26
9 334 TETARD CHRISTOPHE 00:51:46 V1M 4 00:07:18 00:07:18 OPALE TRAIL NATURE 13,445 04:28
10 363 DUBOIS TONY 00:51:53 V1M 5 00:07:25 00:07:25 MARCK ATHLON 13,415 04:28
11 312 LECLERCQ MAXIME 00:52:00 SEM 5 00:07:32 00:03:13 C.S. NESLES 13,385 04:29
12 259 FISSON FREDERICK 00:52:21 SEM 6 00:07:53 00:03:34 NON LICENCIE 13,295 04:31
13 289 MACREZ JEAN-MARIE 00:52:27 SEM 7 00:07:59 00:03:40 NON LICENCIE 13,270 04:31
14 392 PRUD'HOMME GEORGES 00:52:36 V1M 6 00:08:08 00:08:08 COURIR DANS LE LUMBROIS 13,232 04:32
15 407 DUCROCQ ARNAUD 00:52:49 SEM 8 00:08:21 00:04:02 NON LICENCIE 13,178 04:33
16 367 DUCROCQ YVES 00:52:51 V2M 2 00:08:23 00:04:43 NON LICENCIE 13,169 04:33
17 408 TOULOTTE JASON 00:52:51 SEM 9 00:08:23 00:04:04 NON LICENCIE 13,169 04:33
18 402 LECLAIRE CEDRIC 00:53:05 SEM 10 00:08:37 00:04:18 LEFFRINCKOUCKE 13,111 04:35
19 358 MAZURIER ALAIN 00:53:07 V1M 7 00:08:39 00:08:39 PATRIOTES DE GUINES 13,103 04:35
20 352 MORTIER ARMAND 00:53:18 SEM 11 00:08:50 00:04:31 NON LICENCIE 13,058 04:36
21 404 TRUPIN DAMIEN 00:53:27 SEM 12 00:08:59 00:04:40 NON LICENCIE 13,022 04:36
22 327 QUEHEN THEO 00:53:41 CAM 1 00:09:13 00:00:00 NON LICENCIE 12,965 04:38
23 379 MALLIOPOULOS XAVIER 00:53:41 V1M 8 00:09:13 00:09:13 BERCK A C O 12,965 04:38
24 366 DUFOUR FABRICE 00:54:10 SEM 13 00:09:42 00:05:23 SPORT EVASION DES 2 CAPS 12,849 04:40
25 316 VANDENABEELE FREDERIC 00:54:14 V1M 9 00:09:46 00:09:46 A.S. MARCK 12,833 04:41
26 347 LABRADOR JUAN-CARLOS 00:54:15 SEM 14 00:09:47 00:05:28 BLARINGHEM TRAIL 12,829 04:41
27 331 ANDRIEUX DIMITRI 00:54:22 SEM 15 00:09:54 00:05:35 LYS CALAISIS TRIATHLON 12,802 04:41
28 332 FRANCOIS GILBERT 00:54:41 V2M 3 00:10:13 00:06:33 LYS CALAISIS TRIATHLON 12,728 04:43
29 340 LANSCOTTE JOEL 00:54:51 V1M 10 00:10:23 00:10:23 PATRIOTES DE GUINES 12,689 04:44
30 353 MAEREL LOIC 00:55:42 SEM 16 00:11:14 00:06:55 NON LICENCIE 12,496 04:48
31 382 BALY FRANCOIS 00:55:46 SEM 17 00:11:18 00:06:59 NON LICENCIE 12,481 04:48
32 364 TELLIEZ ERIC 00:56:00 V2M 4 00:11:32 00:07:52 NON LICENCIE 12,429 04:50
33 266 EYMANN CEDRIC 00:56:41 SEM 18 00:12:13 00:07:54 ASS. CONTRE LA FAIM 12,279 04:53
34 280 DEFEBVIN BRUNO 00:56:46 V2M 5 00:12:18 00:08:38 ELAN FRUGEOIS 12,261 04:54
35 348 LEBAS ERIC 00:57:00 V1M 11 00:12:32 00:12:32 TEAM TRAIL 62 12,211 04:55
36 381 CAPON MICHEL 00:57:15 V2M 6 00:12:47 00:09:07 NON LICENCIE 12,157 04:56
37 360 BATILLIOT DOMINIQUE 00:57:20 V1F 1 00:12:52 00:00:00 PATRIOTES DE GUINES 12,140 04:57
38 406 DUFOUR NICOLAS 00:57:24 SEM 19 00:12:56 00:08:37 LAPOGNOY 12,125 04:57
39 412 VERBREGUE BENOIT 00:57:30 SEM 20 00:13:02 00:08:43 NON LICENCIE 12,104 04:57
40 373 LJUBELSEK JEREMY 00:57:46 SEM 21 00:13:18 00:08:59 NON LICENCIE 12,048 04:59
41 267 DECOOPMAN REMY 00:58:18 SEM 22 00:13:50 00:09:31 ASS. CONTRE LA FAIM 11,938 05:02
42 396 RENAUX BENOIT 00:58:36 V1M 12 00:14:08 00:14:08 NON LICENCIE 11,877 05:03
43 370 DEBRECQUOI CHRISTOPHE 00:58:38 SEM 23 00:14:10 00:09:51 NON LICENCIE 11,870 05:03
44 304 GRONIER MICHAEL 00:58:43 V1M 13 00:14:15 00:14:15 SPORT EVASION DES 2 CAPS 11,854 05:04
45 296 LEVEL EDDY 00:58:56 SEM 24 00:14:28 00:10:09 NON LICENCIE 11,810 05:05
46 295 DUWAT FREDERIC 00:58:57 V1M 14 00:14:29 00:14:29 DRUVAT TOUTES JAMBES 11,807 05:05
47 254 MOREAU VINCENT 00:59:14 SEM 25 00:14:46 00:10:27 NON LICENCIE 11,750 05:06
48 319 CRETEUR OLIVIER 00:59:20 SEM 26 00:14:52 00:10:33 NON LICENCIE 11,730 05:07
49 369 GRESSIER YANNICK 00:59:29 V1M 15 00:15:01 00:15:01 LE DRAPEAU 11,701 05:08
50 271 BALY PATRICK 00:59:35 V2M 7 00:15:07 00:11:27 OGS CYCLISME 11,681 05:08
51 403 WAY STEPHANE 01:00:03 V1M 16 00:15:35 00:15:35 NON LICENCIE 11,590 05:11
52 380 MELCHIOR ERIC 01:00:17 V2M 8 00:15:49 00:12:09 NON LICENCIE 11,545 05:12
53 260 HAVART CHARLES 01:00:31 V1M 17 00:16:03 00:16:03 JOGGING CLUB LICQUOIS 11,501 05:13
54 305 PELCAT PATRICK 01:00:32 V2M 9 00:16:04 00:12:24 NON LICENCIE 11,498 05:13
55 285 LYS JUSTINE 01:00:35 SEF 1 00:16:07 00:00:00 NON LICENCIE 11,488 05:13
56 411 BERLY MANUELLE 01:00:42 V1F 2 00:16:14 00:03:22 MARCK ATHLON 11,466 05:14
57 365 MONTIGNY DIMITRI 01:00:50 SEM 27 00:16:22 00:12:03 SPORT EVASION DES 2 CAPS 11,441 05:15
58 252 MIEZE SAMUEL 01:00:58 SEM 28 00:16:30 00:12:11 NON LICENCIE 11,416 05:15
59 279 WIDEHEM STEPHANE 01:01:04 SEM 29 00:16:36 00:12:17 ELAN FRUGEOIS 11,397 05:16
60 398 SAILLY DOMINIQUE 01:01:17 SEM 30 00:16:49 00:12:30 ASU DUNKERQUE 11,357 05:17
61 318 ELZBACH AURELIE 01:01:34 SEF 2 00:17:06 00:00:59 SPORT EVASION DES 2 CAPS 11,305 05:18
62 276 FONTAINE LAURENT 01:01:47 V1M 18 00:17:19 00:17:19 COURIR A GRAVELINES 11,265 05:20
63 371 NIELLEN OLIVIER 01:01:47 V1M 19 00:17:19 00:17:19 COURIR DANS LE LUMBROIS 11,265 05:20
64 405 HOLUIGUE FREDERIC 01:01:50 SEM 31 00:17:22 00:13:03 NON LICENCIE 11,256 05:20
65 278 HENGUELLE BETTY 01:01:56 SEF 3 00:17:28 00:01:21 ELAN FRUGEOIS 11,238 05:20
66 345 MAGNIER GAETAN 01:02:00 JUM 1 00:17:32 00:00:00 SAINT MARTIN ATHLETISME 11,226 05:21
67 341 SENECHAL XAVIER 01:02:09 V2M 10 00:17:41 00:14:01 PATRIOTES DE GUINES 11,199 05:21
68 386 WIERRE LAURENT 01:02:12 SEM 32 00:17:44 00:13:25 ATHLETIQUE CLUB CAPELLOIS 11,190 05:22
69 346 MAGNIER PETER 01:02:35 V1M 20 00:18:07 00:18:07 NON LICENCIE 11,121 05:24
70 387 BEAUGRAND GREGORY 01:02:37 V1M 21 00:18:09 00:18:09 ATHLETIQUE CLUB CAPELLOIS 11,115 05:24
71 351 RAMPELBERGHE JOHNNY 01:02:44 V1M 22 00:18:16 00:18:16 NON LICENCIE 11,095 05:24
72 286 DELATTRE OLIVIER 01:02:54 SEM 33 00:18:26 00:14:07 NON LICENCIE 11,065 05:25
73 320 BAILLY JEROME 01:03:03 SEM 34 00:18:35 00:14:16 COURIR DANS LE LUMBROIS 11,039 05:26
74 287 VIEQUE KARINE 01:03:07 SEF 4 00:18:39 00:02:32 LES TYRANNOSAURES 11,027 05:26
75 356 DUFEUTRELLE ALEXANDRE 01:03:09 SEM 35 00:18:41 00:14:22 NON LICENCIE 11,021 05:27
76 372 PETITFRERE GUILLAUME 01:03:16 SEM 36 00:18:48 00:14:29 NON LICENCIE 11,001 05:27
77 270 BALY ADRIEN 01:03:29 SEM 37 00:19:01 00:14:42 NON LICENCIE 10,964 05:28
78 288 MAILLET VINCENT 01:04:07 SEM 38 00:19:39 00:15:20 LES FOULEES ARDRESIENNES 10,855 05:32
79 336 BREBION GUILLAUME 01:04:36 SEM 39 00:20:08 00:15:49 NON LICENCIE 10,774 05:34
80 317 CHARPENTIER CECILE 01:04:44 SEF 5 00:20:16 00:04:09 SPORT EVASION DES 2 CAPS 10,752 05:35
81 293 DUFOUR EMMANUEL 01:04:56 V1M 23 00:20:28 00:20:28 NON LICENCIE 10,719 05:36
82 343 SENECHAL MARIE-CHRISTINE 01:05:27 V2F 1 00:20:59 00:00:00 PATRIOTES DE GUINES 10,634 05:39
83 326 PIQUET JEAN-FRANCOIS 01:05:32 SEM 40 00:21:04 00:16:45 NON LICENCIE 10,621 05:39
84 390 LENGLET BRUNO 01:05:40 SEM 41 00:21:12 00:16:53 NON LICENCIE 10,599 05:40
85 389 DELANNOY BENJAMIN 01:05:57 SEM 42 00:21:29 00:17:10 NON LICENCIE 10,553 05:41
86 294 PLARD EMMANUEL 01:06:02 V1M 24 00:21:34 00:21:34 NON LICENCIE 10,540 05:42
87 303 GRONIER EMILIE 01:06:03 SEF 6 00:21:35 00:05:28 SPORT EVASION DES 2 CAPS 10,537 05:42
88 251 BOULANGER LILIANE 01:06:14 V1F 3 00:21:46 00:08:54 LES JOGGEURS DE GUEMPS 10,508 05:43
89 359 DENEY ANNE SOPHIE 01:07:00 V1F 4 00:22:32 00:09:40 PATRIOTES DE GUINES 10,388 05:47
90 262 BERNACKI JEAN-LUC 01:07:16 V1M 25 00:22:48 00:22:48 NON LICENCIE 10,347 05:48
91 311 DEWATINE ALBAN 01:07:37 SEM 43 00:23:09 00:18:50 NON LICENCIE 10,293 05:50
92 302 THIRARD NICOLAS 01:07:41 CAM 2 00:23:13 00:14:00 NON LICENCIE 10,283 05:50
93 409 MOTHERON CECILE 01:07:42 V1F 5 00:23:14 00:10:22 NON LICENCIE 10,281 05:50
94 300 LEGUAY MARIANICK 01:07:46 SEF 7 00:23:18 00:07:11 NON LICENCIE 10,271 05:51
95 350 LASSON NATHALIE 01:07:50 V1F 6 00:23:22 00:10:30 NON LICENCIE 10,260 05:51
96 400 BELHOUCHAT MEHDI 01:07:56 SEM 44 00:23:28 00:19:09 NON LICENCIE 10,245 05:51
97 399 POCHET LUDOVIC 01:07:56 SEM 45 00:23:28 00:19:09 NON LICENCIE 10,245 05:51
98 301 ROUX FLORENCE 01:08:06 SEF 8 00:23:38 00:07:31 ATHLETISME CLUB OUTREAU 10,220 05:52
99 339 GEENS MELANIE 01:08:15 SEF 9 00:23:47 00:07:40 JOGGING CLUB LICQUOIS 10,198 05:53
100 368 GRESSIER DELPHINE 01:08:23 SEF 10 00:23:55 00:07:48 LE DRAPEAU 10,178 05:54
101 335 GAVOIS CYRIL 01:09:03 SEM 46 00:24:35 00:20:16 SPORT EVASION DES 2 CAPS 10,080 05:57
102 393 SERGENT LAURENT 01:09:06 V2M 11 00:24:38 00:20:58 COLEMBERT 10,072 05:57
103 357 ROBIN BENOIT 01:09:23 SEM 47 00:24:55 00:20:36 NON LICENCIE 10,031 05:59
104 362 ROGEAUX BERNARD 01:09:30 V2M 12 00:25:02 00:21:22 NON LICENCIE 10,014 05:59
105 375 DUTERTE DENIS 01:09:30 SEM 48 00:25:02 00:20:43 NON LICENCIE 10,014 05:59
106 257 DUCOMMUH SANDRINE 01:10:03 V1F 7 00:25:35 00:12:43 NON LICENCIE 9,936 06:02
107 330 SODEN CHRISTOPHER 01:10:10 V1M 26 00:25:42 00:25:42 NON LICENCIE 9,919 06:03
108 290 FORTIN BENOIT 01:10:16 SEM 49 00:25:48 00:21:29 9,905 06:03
109 414 LAMIRAND PATRICK 01:10:37 V2M 13 00:26:09 00:22:29 NON LICENCIE 9,856 06:05
110 299 LYOEN JEAN-MARC 01:10:50 V2M 14 00:26:22 00:22:42 LES FOULEES ARDRESIENNES 9,826 06:06
111 377 HERAULT CAROLINE 01:10:51 V1F 8 00:26:23 00:13:31 R.C. BLENDECQUES 9,824 06:06
112 376 WATRE BABETH 01:10:51 V1F 9 00:26:23 00:13:31 R.C. BLENDECQUES 9,824 06:06
113 306 BUIRE MICHEL 01:10:56 V3M 1 00:26:28 00:00:00 ELAN FRUGEOIS 9,812 06:07
114 291 SART LAURENCE 01:11:04 SEF 11 00:26:36 00:10:29 NON LICENCIE 9,794 06:08
115 281 DEFEBVIN FRANCOISE 01:11:05 V1F 10 00:26:37 00:13:45 ELAN FRUGEOIS 9,791 06:08
116 292 DRAIN RAPHAEL 01:11:05 SEM 50 00:26:37 00:22:18 NON LICENCIE 9,791 06:08
117 338 TARTART SYLVIE 01:11:12 V1F 11 00:26:44 00:13:52 NON LICENCIE 9,775 06:08
118 337 LEGROS GERALDINE 01:11:13 V1F 12 00:26:45 00:13:53 PATRIOTES DE GUINES 9,773 06:08
119 313 DUPUIS SEBASTIEN 01:11:15 V1M 27 00:26:47 00:26:47 NON LICENCIE 9,768 06:09
120 273 DEBROUCKE RICHARD 01:11:27 SEM 51 00:26:59 00:22:40 NON LICENCIE 9,741 06:10
121 253 DUQUENOY ALAIN 01:11:46 V1M 28 00:27:18 00:27:18 NON LICENCIE 9,698 06:11
122 323 PERSYN STEPHANE 01:12:20 V2M 15 00:27:52 00:24:12 9,622 06:14
123 256 HAMEZ KARINE 01:12:55 V1F 13 00:28:27 00:15:35 9,545 06:17
124 388 HARLE Dominique 01:13:09 SEM 52 00:28:41 00:24:22 NON LICENCIE 9,515 06:18
125 401 CHARLES DAVID 01:13:09 V1M 29 00:28:41 00:28:41 NON LICENCIE 9,515 06:18
126 354 SERGENT MODESTINE 01:13:13 SEF 12 00:28:45 00:12:38 NON LICENCIE 9,506 06:19
127 397 DUPREZ CHRISTOPHE 01:13:23 V1M 30 00:28:55 00:28:55 Bonningue athlétisme 9,484 06:20
128 264 SCOTTE LAURENT 01:13:24 V1M 31 00:28:56 00:28:56 LNA 9,482 06:20
129 272 PECRIAUX NADINE 01:13:33 V1F 14 00:29:05 00:16:13 NON LICENCIE 9,463 06:20
130 385 FORTIN BETTY 01:13:35 SEF 13 00:29:07 00:13:00 NON LICENCIE 9,459 06:21
131 384 CAUDRON PIERRE 01:13:36 SEM 53 00:29:08 00:24:49 NON LICENCIE 9,457 06:21
132 333 TETARD ISABELLE 01:13:43 V1F 15 00:29:15 00:16:23 SPORT PLUS 9,442 06:21
133 342 GARS YVES 01:15:08 V2M 16 00:30:40 00:27:00 C-C-CASSEL 9,264 06:29
134 274 JELONEK DOROTHEE 01:15:19 V1F 16 00:30:51 00:17:59 NON LICENCIE 9,241 06:30
135 314 DELEPIERRE SYLVAIN 01:15:39 V1M 32 00:31:11 00:31:11 NON LICENCIE 9,200 06:31
136 315 DELEPIERRE ESTELLE 01:15:39 SEF 14 00:31:11 00:15:04 NON LICENCIE 9,200 06:31
137 310 HENQUEZ VIRGINIE 01:15:50 V1F 17 00:31:22 00:18:30 PATRIOTES DE GUINES 9,178 06:32
138 269 GRINBELL CECILE 01:16:17 SEF 15 00:31:49 00:15:42 TENNIS CLUB BEUVRY 9,124 06:35
139 391 SMEE BERNARD 01:16:27 V3M 2 00:31:59 00:05:31 NON LICENCIE 9,104 06:35
140 410 BAILLEUL LAURENCE 01:16:37 SEF 16 00:32:09 00:16:02 NON LICENCIE 9,084 06:36
141 261 BERNACKI LYDIE 01:20:14 V1F 18 00:35:46 00:22:54 NON LICENCIE 8,675 06:55
142 275 BEKOVASSA SANDRINE 01:20:18 V1F 19 00:35:50 00:22:58 NON LICENCIE 8,667 06:55
143 322 FAUQUET ISABELLE 01:20:47 V1F 20 00:36:19 00:23:27 NON LICENCIE 8,616 06:58
144 324 HAMY DANY 01:20:47 V1F 21 00:36:19 00:23:27 NON LICENCIE 8,616 06:58
145 395 CIHELKA LAETITIA 01:21:10 SEF 17 00:36:42 00:20:35 NON LICENCIE 8,575 07:00
146 394 AUDREZET GUILLAUME 01:21:10 SEM 54 00:36:42 00:32:23 NON LICENCIE 8,575 07:00
147 309 HENQUEZ BERNADETTE 01:21:57 V3F 1 00:37:29 00:00:00 PATRIOTES DE GUINES 8,493 07:04
148 328 QUEHEN STEPHANIE 01:23:50 V1F 22 00:39:22 00:26:30 NON LICENCIE 8,302 07:14
149 383 LYOEN ANAIS 01:24:03 SEF 18 00:39:35 00:23:28 NON LICENCIE 8,281 07:15
150 413 DUFOUR JEAN-PIERRE 01:24:11 V3M 3 00:39:43 00:13:15 NON LICENCIE 8,268 07:15
151 258 VANDEWYNCKEL CAROLINE 01:28:38 SEF 19 00:44:10 00:28:03 NON LICENCIE 7,853 07:38
152 283 DUQUENOY HELENE 01:29:06 SEF 20 00:44:38 00:28:31 LES FOULEES ARDRESIENNES 7,811 07:41
153 282 DUQUENOY DAVID 01:29:06 SEM 55 00:44:38 00:40:19 NON LICENCIE 7,811 07:41
154 265 GLACON PATRICK 01:41:11 V3M 4 00:56:43 00:30:15 NON LICENCIE 6,879 08:43
155 297 SUEUR MELANIE 01:44:59 SEF 21 01:00:31 00:44:24 SPORT EVASION DES 2 CAPS 6,630 09:03